Terminal Aerodrome Forecast
Issued by NWS Knoxville/Tri Cities, TN

Home | Current Version | Previous Version | Text Only | Print | Product List | Glossary On
Versions: 1 2 3 4 5 6 7 8 9 10 11 12 13 14 15 16 17 18 19 20 21 22 23 24 25 26 27 28 29 30
000
FTUS44 KMRX 041720
TAFCHA
TAF
KCHA 041720Z 0418/0518 03008KT 3SM -RA BKN006 OVC020
      TEMPO 0418/0421 1SM BR BKN010 OVC020
     FM042100 12005KT 5SM -DZ BR OVC010
     FM050300 VRB03KT 2SM -DZ BR OVC005
     FM050800 29002KT 1/2SM FG OVC004
     FM051500 35003KT 3SM BR OVC010=

USA.gov is the U.S. government's official web portal to all federal, state and local government web resources and services.